Historyczne dane pomiarowe

Dodano dane terminowe – wersja testowa.

Dane z okresu 1951-2019

Wersja bazy: 1.34 [2019-03-16, lista zmian], aktualizacja planowana na 2019-04-15

Dane meteo z obszaru Polski uzyskane na podstawie danych udostępnionych przez Instytut Meteorologii i Gospodarki Wodnej – Państwowy Instytut Badawczy.

 

Wybierz Datę:    

       

TemperaturaWilgotnośćWiatrCiśnienieOpadyŚniegCzas trwania zjawisk
 Stacja t tx tn tng RH VA  wxwx mslp ppp RRR   cm mm wxwxwxwxwxwxwx
1962-02-14 -4.3 1.1 -8.0- 80.5- 4.0 2.0---- 0.0-- 6---------
1962-02-15 -5.5 -2.9 -7.1- 71.3- 5.3 5.0---- 0.0-- 6---------
1962-02-16 -2.0 1.6 -9.3- 79.8- 8.0 9.3---- 7.1-- 6---------
1962-02-17 -1.7 2.1 -3.9- 80.3- 8.0 8.7---- 2.0-- 10---------
1962-02-18 -3.2 -2.1 -4.0- 86.3- 8.0 9.7---- 0.6-- 12---------
1962-02-19 -3.6 -0.8-11.1- 82.5- 6.0 1.0---- 2.4-- 13---------
1962-02-20 1.5 2.5 -1.7- 89.0- 8.0 5.3---- 2.7-- 14---------
1962-02-21 -3.7 1.4 -5.4- 84.3- 8.0 6.0---- 0.3-- 10---------
1962-02-22 -7.2 -4.8-10.3- 75.8- 7.0 2.7---- 0.0-- 10---------
1962-02-23 -5.5 -4.1-10.6- 73.3- 8.0 4.3---- 0.0-- 10---------
1962-02-24 -5.9 -3.7 -7.0- 81.5- 8.0 3.0---- 1.7-- 10---------
1962-02-25 -6.3 -5.0-10.0- 80.3- 5.3 4.3---- 0.8-- 12---------
1962-02-26 -4.2 -2.9 -5.2- 80.3- 8.0 3.7---- 0.0-- 13---------
1962-02-27 -6.8 -3.2-10.0- 77.8- 5.0 2.7---- 0.0-- 13---------
1962-02-28 -9.8 -4.4-14.4- 78.3- 5.3 2.0---- 0.0-- 13---------
1962-03-01-11.6 -4.8-16.9- 77.0- 1.7 1.7---- 0.0-- 13---------
1962-03-02 -8.3 -5.6-16.6- 77.3- 6.0 2.0---- 0.0-- 12---------
1962-03-03 -4.4 -0.4 -7.6- 79.5- 8.0 2.0---- 0.0-- 12---------
1962-03-04 -1.5 0.1 -4.9- 87.8- 8.0 1.3---- 1.6-- 12---------
1962-03-05 -2.7 -1.5 -3.5- 85.3- 8.0 2.3---- 9.4-- 14---------
1962-03-06 -2.3 -0.5 -3.8- 87.8- 8.0 2.0---- 5.9-- 9---------
1962-03-07 -5.2 -0.9 -7.7- 80.0- 6.7 1.3---- 0.0-- 12---------
1962-03-08 -4.7 -0.8-14.6- 80.5- 4.7 3.7---- 0.0-- 12---------
1962-03-09 -5.9 -1.2 -8.8- 76.3- 3.7 2.3---- 0.0-- 12---------
1962-03-10 -2.2 0.6 -7.4- 66.8- 3.7 5.7---- 0.0-- 11---------
1962-03-11 1.6 3.0 -2.1- 88.0- 8.0 1.7---- 0.0-- 10---------
1962-03-12 1.8 5.1 0.6- 90.0- 8.0 1.0---- 11.5-- 8---------
1962-03-13 -5.9 0.6 -6.7- 79.8- 6.3 4.7---- 2.2-- 16---------
1962-03-14 -8.1 -2.9-10.5- 81.3- 4.7 3.7---- 0.0-- 18---------
1962-03-15-10.1 -1.0-19.3- 70.5- 5.3 1.0---- 0.0-- 17---------
233.9 ms

 

Źródłem pochodzenia danych jest Instytut Meteorologii i Gospodarki Wodnej – Państwowy Instytut Badawczy. Dane Instytutu Meteorologii i Gospodarki Wodnej – Państwowego Instytutu Badawczego zostały przetworzone.

Dane źródłowe można odnaleźć na stronie https://dane.imgw.pl